createdAt,value
2023-02-28T00:01:55.457Z,13.75
2023-02-28T00:05:04.559Z,13.76
2023-02-28T00:08:08.404Z,13.81
2023-02-28T00:11:14.493Z,14.08
2023-02-28T00:14:18.410Z,14.14
2023-02-28T00:17:23.799Z,14.11
2023-02-28T00:20:27.916Z,14.24
2023-02-28T00:23:32.142Z,14.20
2023-02-28T00:26:36.083Z,14.14
2023-02-28T00:29:40.396Z,13.92
2023-02-28T00:32:46.092Z,13.88
2023-02-28T00:35:50.015Z,14.00
2023-02-28T00:38:53.926Z,13.91
2023-02-28T00:41:57.729Z,13.67
2023-02-28T00:45:01.526Z,14.03
2023-02-28T00:48:07.370Z,14.12
2023-02-28T00:51:11.395Z,14.25
2023-02-28T00:54:15.470Z,14.32
2023-02-28T00:57:19.224Z,14.06
2023-02-28T01:00:23.233Z,14.24
2023-02-28T01:03:29.175Z,14.32
2023-02-28T01:06:33.206Z,14.19
2023-02-28T01:09:36.997Z,14.38
2023-02-28T01:12:41.848Z,13.95
2023-02-28T01:15:51.521Z,14.00
2023-02-28T01:18:57.179Z,14.07
2023-02-28T01:22:03.952Z,14.28
2023-02-28T01:25:08.394Z,14.05
2023-02-28T01:28:12.106Z,14.21
2023-02-28T01:31:16.260Z,14.14
2023-02-28T01:34:21.491Z,14.27
2023-02-28T01:37:25.184Z,14.44
2023-02-28T01:40:28.805Z,14.20
2023-02-28T01:43:34.229Z,14.11
2023-02-28T01:46:38.856Z,14.07
2023-02-28T01:49:45.301Z,14.01
2023-02-28T01:52:51.456Z,13.70
2023-02-28T01:55:56.504Z,13.76
2023-02-28T01:59:00.322Z,13.77
2023-02-28T02:02:04.969Z,13.80
2023-02-28T02:05:13.372Z,13.80
2023-02-28T02:08:21.396Z,13.63
2023-02-28T02:11:30.987Z,13.46
2023-02-28T02:14:46.159Z,13.17
2023-02-28T02:17:54.379Z,13.40
2023-02-28T02:21:30.546Z,13.52
2023-02-28T02:25:02.226Z,13.61
2023-02-28T02:28:47.758Z,13.72
2023-02-28T02:32:18.409Z,13.50
2023-02-28T02:35:30.071Z,12.78
2023-02-28T02:38:40.802Z,12.58
2023-02-28T02:41:51.820Z,12.60
2023-02-28T02:45:01.010Z,12.53
2023-02-28T02:48:08.730Z,12.98
2023-02-28T02:51:17.312Z,12.90
2023-02-28T02:54:25.328Z,12.76
2023-02-28T02:57:34.770Z,12.51
2023-02-28T03:00:43.702Z,12.36
2023-02-28T03:03:48.265Z,12.29
2023-02-28T03:06:55.984Z,12.37
2023-02-28T03:10:00.471Z,12.36
2023-02-28T03:13:20.491Z,12.12
2023-02-28T03:16:46.743Z,12.06
2023-02-28T03:19:58.087Z,12.35
2023-02-28T03:23:18.960Z,12.22
2023-02-28T03:26:29.060Z,12.34
2023-02-28T03:29:38.000Z,12.40
2023-02-28T03:32:45.497Z,12.34
2023-02-28T03:35:55.569Z,11.99
2023-02-28T03:39:04.460Z,12.10
2023-02-28T03:42:11.984Z,11.77
2023-02-28T03:45:20.686Z,11.83
2023-02-28T03:48:30.130Z,11.66
2023-02-28T03:51:36.113Z,11.75
2023-02-28T03:54:46.378Z,11.64
2023-02-28T03:57:59.302Z,11.83
2023-02-28T04:01:09.889Z,12.03
2023-02-28T04:04:14.762Z,12.16
2023-02-28T04:07:19.306Z,11.93
2023-02-28T04:10:24.620Z,12.03
2023-02-28T04:13:28.419Z,11.72
2023-02-28T04:16:35.424Z,11.41
2023-02-28T04:19:39.816Z,11.44
2023-02-28T04:22:43.551Z,11.53
2023-02-28T04:25:48.675Z,11.44
2023-02-28T04:28:52.424Z,11.38
2023-02-28T04:31:59.135Z,11.42
2023-02-28T04:35:03.802Z,11.23
2023-02-28T04:38:07.314Z,11.26
2023-02-28T04:41:12.643Z,11.47
2023-02-28T04:44:17.367Z,11.58
2023-02-28T04:47:21.122Z,11.60
2023-02-28T04:50:24.865Z,11.48
2023-02-28T04:53:29.752Z,11.34
2023-02-28T04:56:34.962Z,11.42
2023-02-28T04:59:38.577Z,11.28
2023-02-28T05:02:42.401Z,11.00
2023-02-28T05:05:46.051Z,11.15
2023-02-28T05:08:49.913Z,11.35
2023-02-28T05:11:55.069Z,11.56
2023-02-28T05:14:58.862Z,11.18
2023-02-28T05:18:02.403Z,11.33
2023-02-28T05:21:06.191Z,11.37
2023-02-28T05:24:12.955Z,11.30
2023-02-28T05:27:18.149Z,11.03
2023-02-28T05:30:22.220Z,10.66
2023-02-28T05:33:26.030Z,10.74
2023-02-28T05:36:29.850Z,10.81
2023-02-28T05:39:33.504Z,10.83
2023-02-28T05:42:38.645Z,10.98
2023-02-28T05:45:42.381Z,10.81
2023-02-28T05:48:50.260Z,10.81
2023-02-28T05:51:53.903Z,11.18
2023-02-28T05:54:57.604Z,11.11
2023-02-28T05:58:02.952Z,10.84
2023-02-28T06:01:23.993Z,10.73
2023-02-28T06:04:31.980Z,10.86
2023-02-28T06:07:36.024Z,10.47
2023-02-28T06:10:39.819Z,10.75
2023-02-28T06:13:45.075Z,10.69
2023-02-28T06:16:50.089Z,10.86
2023-02-28T06:19:54.131Z,10.96
2023-02-28T06:22:59.737Z,10.89
2023-02-28T06:26:03.607Z,10.92
2023-02-28T06:29:08.897Z,10.73
2023-02-28T06:32:12.805Z,10.85
2023-02-28T06:35:16.870Z,10.81
2023-02-28T06:38:21.384Z,11.04
2023-02-28T06:41:26.657Z,10.64
2023-02-28T06:44:36.495Z,10.81
2023-02-28T06:47:42.231Z,10.87
2023-02-28T06:50:46.344Z,11.46
2023-02-28T06:53:50.170Z,11.45
2023-02-28T06:56:55.468Z,11.07
2023-02-28T07:00:01.388Z,11.12
2023-02-28T07:03:05.184Z,11.10
2023-02-28T07:06:09.380Z,10.84
2023-02-28T07:09:13.206Z,11.01
2023-02-28T07:12:17.070Z,10.86
2023-02-28T07:15:22.325Z,10.95
2023-02-28T07:18:26.341Z,11.36
2023-02-28T07:21:30.541Z,11.72
2023-02-28T07:24:34.706Z,11.92
2023-02-28T07:27:38.604Z,12.03
2023-02-28T07:30:43.950Z,11.09
2023-02-28T07:33:47.880Z,11.54
2023-02-28T07:36:54.695Z,11.54
2023-02-28T07:39:58.725Z,11.23
2023-02-28T07:43:02.812Z,11.19
2023-02-28T07:46:10.845Z,11.10
2023-02-28T07:49:14.670Z,11.12
2023-02-28T07:52:18.542Z,11.67
2023-02-28T07:55:22.419Z,11.57
2023-02-28T07:58:27.143Z,11.84
2023-02-28T08:01:32.800Z,11.65
2023-02-28T08:04:36.908Z,11.63
2023-02-28T08:07:40.721Z,11.65
2023-02-28T08:10:45.066Z,12.07
2023-02-28T08:13:48.902Z,11.77
2023-02-28T08:16:54.023Z,11.78
2023-02-28T08:19:57.742Z,11.98
2023-02-28T08:23:01.578Z,11.40
2023-02-28T08:26:06.477Z,11.03
2023-02-28T08:29:10.281Z,11.09
2023-02-28T08:32:28.932Z,11.55
2023-02-28T08:35:33.719Z,11.89
2023-02-28T08:38:37.649Z,12.12
2023-02-28T08:41:42.482Z,11.46
2023-02-28T08:44:46.250Z,11.86
2023-02-28T08:47:53.728Z,12.25
2023-02-28T08:51:06.758Z,11.80
2023-02-28T08:54:13.773Z,11.90
2023-02-28T08:57:17.574Z,11.61
2023-02-28T09:00:22.783Z,11.79
2023-02-28T09:03:28.901Z,11.82
2023-02-28T09:06:32.893Z,11.85
2023-02-28T09:09:36.978Z,12.10
2023-02-28T09:12:40.983Z,11.84
2023-02-28T09:15:44.799Z,12.04
2023-02-28T09:18:50.668Z,11.13
2023-02-28T09:21:54.450Z,11.44
2023-02-28T09:24:58.313Z,11.61
2023-02-28T09:28:02.417Z,11.67
2023-02-28T09:31:06.442Z,11.70
2023-02-28T09:34:11.792Z,11.81
2023-02-28T09:37:15.642Z,11.83
2023-02-28T09:40:21.170Z,11.80
2023-02-28T09:43:28.045Z,12.20
2023-02-28T09:46:36.054Z,12.13
2023-02-28T09:49:45.066Z,12.19
2023-02-28T09:52:51.492Z,11.95
2023-02-28T09:56:00.198Z,11.63
2023-02-28T09:59:12.489Z,11.69
2023-02-28T10:02:39.273Z,11.93
2023-02-28T10:05:54.631Z,12.28
2023-02-28T10:09:02.787Z,12.21
2023-02-28T10:12:08.261Z,12.10
2023-02-28T10:15:16.948Z,11.74
2023-02-28T10:18:27.125Z,11.99
2023-02-28T10:21:37.852Z,11.99
2023-02-28T10:24:44.796Z,12.03
2023-02-28T10:27:48.554Z,12.25
2023-02-28T10:30:55.117Z,12.19
2023-02-28T10:33:59.094Z,12.10
2023-02-28T10:37:08.593Z,11.56
2023-02-28T10:40:30.647Z,11.81
2023-02-28T10:43:34.478Z,11.57
2023-02-28T10:46:38.438Z,11.57
2023-02-28T10:49:50.737Z,11.42
2023-02-28T10:52:56.918Z,11.40
2023-02-28T10:56:03.300Z,11.25
2023-02-28T10:59:30.603Z,11.51
2023-02-28T11:02:36.890Z,11.47
2023-02-28T11:05:42.565Z,11.52
2023-02-28T11:08:50.474Z,11.64
2023-02-28T11:11:54.953Z,11.32
2023-02-28T11:15:02.503Z,11.21
2023-02-28T11:18:24.067Z,10.98
2023-02-28T11:21:31.893Z,11.03
2023-02-28T11:24:44.613Z,11.38
2023-02-28T11:27:51.300Z,11.41
2023-02-28T11:31:08.345Z,11.72
2023-02-28T11:34:28.686Z,11.49
2023-02-28T11:37:33.921Z,11.87
2023-02-28T11:40:49.272Z,11.80
2023-02-28T11:44:08.288Z,11.88
2023-02-28T11:47:18.604Z,11.74
2023-02-28T11:50:33.793Z,11.59
2023-02-28T11:53:52.287Z,11.35
2023-02-28T11:57:02.624Z,10.60
2023-02-28T12:00:21.924Z,10.55
2023-02-28T12:03:33.728Z,10.96
2023-02-28T12:06:45.939Z,10.83
2023-02-28T12:09:59.917Z,10.83
2023-02-28T12:13:15.801Z,10.95
2023-02-28T12:16:38.869Z,11.33
2023-02-28T12:19:50.112Z,11.44
2023-02-28T12:23:01.505Z,11.29
2023-02-28T12:26:16.448Z,10.97
2023-02-28T12:29:25.302Z,11.09
2023-02-28T12:32:34.757Z,10.74
2023-02-28T12:35:47.034Z,10.70
2023-02-28T12:38:58.909Z,10.47
2023-02-28T12:42:08.936Z,10.41
2023-02-28T12:45:21.459Z,10.55
2023-02-28T12:48:32.138Z,10.63
2023-02-28T12:51:38.257Z,10.54
2023-02-28T12:54:52.974Z,10.58
2023-02-28T12:58:05.909Z,10.45
2023-02-28T13:01:45.709Z,10.68
2023-02-28T13:05:26.192Z,11.04
2023-02-28T13:09:04.302Z,11.08
2023-02-28T13:12:16.715Z,11.07
2023-02-28T13:15:25.410Z,10.94
2023-02-28T13:18:38.672Z,10.76
2023-02-28T13:21:48.402Z,10.74
2023-02-28T13:24:54.503Z,10.60
2023-02-28T13:28:02.135Z,10.37
2023-02-28T13:31:07.991Z,10.43
2023-02-28T13:34:18.180Z,10.48
2023-02-28T13:37:44.232Z,10.54
2023-02-28T13:40:48.054Z,10.36
2023-02-28T13:44:13.984Z,10.37
2023-02-28T13:47:32.106Z,10.26
2023-02-28T13:50:40.153Z,10.22
2023-02-28T13:54:02.849Z,10.30
2023-02-28T13:57:20.419Z,10.54
2023-02-28T14:00:34.600Z,10.48
2023-02-28T14:03:59.041Z,10.57
2023-02-28T14:07:05.611Z,10.76
2023-02-28T14:10:22.389Z,11.00
2023-02-28T14:13:47.957Z,10.78
2023-02-28T14:16:52.233Z,10.74
2023-02-28T14:19:56.166Z,10.85
2023-02-28T14:23:10.317Z,10.80
2023-02-28T14:26:29.570Z,10.88
2023-02-28T14:29:50.704Z,10.63
2023-02-28T14:33:08.082Z,10.77
2023-02-28T14:36:22.483Z,10.77
2023-02-28T14:39:28.767Z,10.65
2023-02-28T14:42:34.301Z,10.52
2023-02-28T14:45:39.727Z,10.76
2023-02-28T14:48:43.549Z,10.69
2023-02-28T14:51:48.528Z,10.62
2023-02-28T14:54:57.162Z,10.53
2023-02-28T14:58:04.546Z,10.65
2023-02-28T15:01:08.525Z,10.60
2023-02-28T15:04:30.018Z,10.72
2023-02-28T15:07:34.099Z,10.87
2023-02-28T15:10:41.472Z,10.87
2023-02-28T15:13:48.061Z,10.94
2023-02-28T15:16:58.779Z,11.15
2023-02-28T15:20:03.496Z,11.01
2023-02-28T15:23:07.406Z,10.78
2023-02-28T15:26:16.770Z,10.68
2023-02-28T15:29:23.661Z,10.47
2023-02-28T15:32:31.261Z,10.48
2023-02-28T15:35:36.102Z,10.41
2023-02-28T15:38:39.973Z,10.55
2023-02-28T15:41:45.256Z,10.24
2023-02-28T15:44:49.515Z,10.45
2023-02-28T15:47:54.661Z,10.50
2023-02-28T15:51:03.489Z,10.29
2023-02-28T15:54:09.994Z,10.20
2023-02-28T15:57:18.130Z,10.42
2023-02-28T16:00:25.264Z,9.98
2023-02-28T16:03:37.546Z,10.21
2023-02-28T16:06:43.900Z,10.00
2023-02-28T16:09:48.389Z,10.04
2023-02-28T16:12:55.278Z,10.39
2023-02-28T16:16:00.718Z,10.16
2023-02-28T16:19:04.497Z,10.25
2023-02-28T16:22:08.335Z,10.09
2023-02-28T16:25:14.598Z,10.14
2023-02-28T16:28:23.525Z,9.96
2023-02-28T16:31:27.686Z,9.67
2023-02-28T16:34:31.562Z,9.98
2023-02-28T16:37:35.398Z,10.11
2023-02-28T16:40:39.291Z,10.01
2023-02-28T16:43:45.596Z,10.10
2023-02-28T16:46:49.414Z,10.00
2023-02-28T16:49:53.203Z,10.20
2023-02-28T16:52:57.162Z,10.07
2023-02-28T16:56:03.134Z,10.18
2023-02-28T16:59:08.343Z,10.02
2023-02-28T17:02:15.460Z,10.01
2023-02-28T17:05:20.730Z,9.90
2023-02-28T17:08:24.474Z,10.05
2023-02-28T17:11:29.227Z,10.01
2023-02-28T17:14:34.594Z,10.11
2023-02-28T17:17:38.297Z,10.12
2023-02-28T17:20:43.469Z,10.10
2023-02-28T17:23:47.299Z,9.95
2023-02-28T17:26:51.186Z,9.80
2023-02-28T17:29:56.541Z,9.64
2023-02-28T17:33:00.434Z,9.64
2023-02-28T17:36:04.406Z,9.64
2023-02-28T17:39:15.031Z,9.71
2023-02-28T17:42:20.309Z,9.24
2023-02-28T17:45:26.030Z,9.56
2023-02-28T17:48:31.935Z,9.09
2023-02-28T17:51:35.760Z,9.50
2023-02-28T17:54:39.571Z,9.51
2023-02-28T17:57:44.190Z,9.44
2023-02-28T18:00:54.937Z,9.32
2023-02-28T18:03:58.847Z,9.37
2023-02-28T18:07:02.940Z,9.51
2023-02-28T18:10:08.253Z,9.19
2023-02-28T18:13:12.770Z,9.45
2023-02-28T18:16:19.192Z,9.30
2023-02-28T18:19:23.386Z,9.07
2023-02-28T18:22:27.160Z,9.00
2023-02-28T18:25:31.362Z,8.97
2023-02-28T18:28:35.259Z,8.76
2023-02-28T18:31:40.408Z,8.99
2023-02-28T18:34:44.225Z,8.84
2023-02-28T18:37:48.044Z,9.04
2023-02-28T18:40:57.241Z,8.87
2023-02-28T18:44:10.410Z,8.79
2023-02-28T18:47:20.004Z,8.77
2023-02-28T18:50:23.846Z,8.70
2023-02-28T18:53:27.577Z,8.88
2023-02-28T18:56:31.712Z,8.98
2023-02-28T18:59:35.614Z,9.00
2023-02-28T19:02:40.892Z,9.03
2023-02-28T19:05:44.769Z,8.85
2023-02-28T19:08:49.534Z,8.98
2023-02-28T19:11:53.285Z,8.93
2023-02-28T19:14:56.998Z,8.93
2023-02-28T19:18:02.440Z,8.97
2023-02-28T19:21:08.217Z,8.70
2023-02-28T19:24:12.498Z,8.59
2023-02-28T19:27:17.510Z,8.46
2023-02-28T19:30:21.605Z,8.62
2023-02-28T19:33:26.880Z,8.97
2023-02-28T19:36:30.702Z,8.81
2023-02-28T19:39:41.241Z,9.11
2023-02-28T19:42:45.147Z,9.13
2023-02-28T19:45:49.342Z,8.96
2023-02-28T19:48:56.508Z,9.21
2023-02-28T19:52:00.288Z,8.68
2023-02-28T19:55:04.120Z,8.81
2023-02-28T19:58:07.912Z,8.89
2023-02-28T20:01:13.768Z,8.60
2023-02-28T20:04:19.004Z,8.80
2023-02-28T20:07:22.865Z,8.53
2023-02-28T20:10:26.693Z,8.70
2023-02-28T20:13:30.881Z,8.56
2023-02-28T20:16:34.857Z,8.75
2023-02-28T20:19:40.202Z,8.56
2023-02-28T20:22:44.050Z,8.62
2023-02-28T20:25:47.886Z,8.60
2023-02-28T20:28:51.646Z,8.35
2023-02-28T20:31:55.782Z,8.46
2023-02-28T20:35:01.053Z,8.55
2023-02-28T20:38:04.830Z,8.49
2023-02-28T20:41:09.120Z,8.40
2023-02-28T20:44:14.591Z,8.45
2023-02-28T20:47:18.414Z,8.31
2023-02-28T20:50:23.614Z,8.14
2023-02-28T20:53:28.949Z,8.18
2023-02-28T20:56:32.806Z,8.30
2023-02-28T20:59:36.689Z,8.19
2023-02-28T21:02:40.575Z,8.36
2023-02-28T21:05:45.888Z,8.19
2023-02-28T21:08:50.371Z,8.44
2023-02-28T21:11:55.342Z,8.16
2023-02-28T21:14:59.048Z,8.28
2023-02-28T21:18:02.815Z,8.22
2023-02-28T21:21:10.373Z,8.03
2023-02-28T21:24:15.480Z,8.44
2023-02-28T21:27:19.275Z,8.45
2023-02-28T21:30:23.253Z,8.55
2023-02-28T21:33:27.400Z,8.37
2023-02-28T21:36:35.220Z,8.25
2023-02-28T21:39:38.951Z,8.36
2023-02-28T21:42:42.830Z,8.61
2023-02-28T21:45:46.611Z,8.52
2023-02-28T21:48:51.161Z,8.42
2023-02-28T21:51:56.448Z,8.36
2023-02-28T21:55:00.130Z,8.35
2023-02-28T21:58:04.164Z,8.21
2023-02-28T22:01:09.571Z,8.13
2023-02-28T22:04:21.355Z,8.25
2023-02-28T22:07:26.688Z,8.13
2023-02-28T22:10:30.626Z,8.29
2023-02-28T22:13:35.077Z,8.08
2023-02-28T22:16:50.837Z,8.34
2023-02-28T22:19:55.908Z,8.44
2023-02-28T22:23:01.380Z,8.60
2023-02-28T22:26:07.275Z,8.56
2023-02-28T22:29:11.033Z,8.39
2023-02-28T22:32:15.562Z,8.65
2023-02-28T22:35:20.622Z,8.38
2023-02-28T22:38:27.553Z,8.13
2023-02-28T22:41:31.940Z,8.11
2023-02-28T22:44:35.671Z,7.97
2023-02-28T22:47:39.431Z,7.91
2023-02-28T22:50:43.345Z,8.17
2023-02-28T22:53:50.047Z,7.85
2023-02-28T22:56:53.942Z,7.73
2023-02-28T22:59:57.673Z,7.89
2023-02-28T23:03:01.531Z,8.34
2023-02-28T23:06:14.448Z,8.22
2023-02-28T23:09:21.781Z,8.07
2023-02-28T23:12:25.694Z,8.09
2023-02-28T23:15:29.497Z,7.89
2023-02-28T23:18:33.304Z,8.27
2023-02-28T23:21:37.530Z,8.07
2023-02-28T23:24:42.745Z,8.06
2023-02-28T23:27:46.649Z,8.24
2023-02-28T23:30:50.444Z,8.42
2023-02-28T23:33:54.383Z,8.20
2023-02-28T23:37:00.148Z,8.38
2023-02-28T23:40:08.396Z,7.99
2023-02-28T23:43:12.487Z,7.92
2023-02-28T23:46:17.889Z,8.06
2023-02-28T23:49:22.226Z,7.88
2023-02-28T23:52:25.907Z,8.16
2023-02-28T23:55:31.110Z,7.99
2023-02-28T23:58:35.966Z,8.07
